createdAt,value
2022-12-17T00:00:32.179Z,72.09
2022-12-17T00:01:32.145Z,72.30
2022-12-17T00:02:32.370Z,72.30
2022-12-17T00:03:32.270Z,72.60
2022-12-17T00:04:32.128Z,72.50
2022-12-17T00:05:32.187Z,72.19
2022-12-17T00:06:32.239Z,72.19
2022-12-17T00:07:32.143Z,72.60
2022-12-17T00:08:32.156Z,72.30
2022-12-17T00:09:32.053Z,71.89
2022-12-17T00:10:32.062Z,71.73
2022-12-17T00:11:32.901Z,72.33
2022-12-17T00:12:32.082Z,72.53
2022-12-17T00:13:31.997Z,72.33
2022-12-17T00:14:32.117Z,72.53
2022-12-17T00:15:32.011Z,72.43
2022-12-17T00:16:32.078Z,72.73
2022-12-17T00:17:32.978Z,72.73
2022-12-17T00:18:31.956Z,72.43
2022-12-17T00:19:31.956Z,72.43
2022-12-17T00:20:31.943Z,72.33
2022-12-17T00:21:32.046Z,72.33
2022-12-17T00:22:31.950Z,72.13
2022-12-17T00:23:32.812Z,72.33
2022-12-17T00:24:31.971Z,72.43
2022-12-17T00:25:32.878Z,72.43
2022-12-17T00:26:31.886Z,72.43
2022-12-17T00:27:31.874Z,72.43
2022-12-17T00:28:31.879Z,72.13
2022-12-17T00:29:32.106Z,72.43
2022-12-17T00:30:31.853Z,72.43
2022-12-17T00:31:31.970Z,72.13
2022-12-17T00:32:31.736Z,72.23
2022-12-17T00:33:31.831Z,72.23
2022-12-17T00:34:31.768Z,71.93
2022-12-17T00:35:31.817Z,72.13
2022-12-17T00:36:31.793Z,72.13
2022-12-17T00:37:31.845Z,72.33
2022-12-17T00:38:31.898Z,72.53
2022-12-17T00:39:31.704Z,72.83
2022-12-17T00:40:31.710Z,72.83
2022-12-17T00:41:31.865Z,72.93
2022-12-17T00:42:31.667Z,72.63
2022-12-17T00:43:31.695Z,72.83
2022-12-17T00:44:31.633Z,72.93
2022-12-17T00:45:31.634Z,72.73
2022-12-17T00:46:31.694Z,72.83
2022-12-17T00:47:31.644Z,73.03
2022-12-17T00:48:31.614Z,72.83
2022-12-17T00:49:31.566Z,73.03
2022-12-17T00:50:31.623Z,73.03
2022-12-17T00:51:31.578Z,73.03
2022-12-17T00:52:31.676Z,73.33
2022-12-17T00:53:31.489Z,73.23
2022-12-17T00:54:31.555Z,73.03
2022-12-17T00:55:31.511Z,73.53
2022-12-17T00:56:31.502Z,73.23
2022-12-17T00:57:31.508Z,73.13
2022-12-17T00:58:31.513Z,73.03
2022-12-17T00:59:31.481Z,73.13
2022-12-17T01:00:31.610Z,73.23
2022-12-17T01:01:31.671Z,73.33
2022-12-17T01:02:31.550Z,73.43
2022-12-17T01:03:31.465Z,73.43
2022-12-17T01:04:31.450Z,73.73
2022-12-17T01:05:31.431Z,73.63
2022-12-17T01:06:31.416Z,73.63
2022-12-17T01:07:31.387Z,73.73
2022-12-17T01:08:31.377Z,73.73
2022-12-17T01:09:31.449Z,73.23
2022-12-17T01:10:31.350Z,73.23
2022-12-17T01:11:31.355Z,72.63
2022-12-17T01:12:31.315Z,73.23
2022-12-17T01:13:31.341Z,73.23
2022-12-17T01:14:31.416Z,73.33
2022-12-17T01:15:31.324Z,73.27
2022-12-17T01:16:31.352Z,73.07
2022-12-17T01:17:31.244Z,73.13
2022-12-17T01:18:31.253Z,73.27
2022-12-17T01:19:31.255Z,73.27
2022-12-17T01:20:31.254Z,73.07
2022-12-17T01:21:31.266Z,72.97
2022-12-17T01:22:31.241Z,73.27
2022-12-17T01:23:31.197Z,73.27
2022-12-17T01:24:31.190Z,73.27
2022-12-17T01:25:31.294Z,73.57
2022-12-17T01:26:31.202Z,73.23
2022-12-17T01:27:31.201Z,73.23
2022-12-17T01:28:31.182Z,73.23
2022-12-17T01:29:31.180Z,73.23
2022-12-17T01:30:31.127Z,73.13
2022-12-17T01:31:34.884Z,72.93
2022-12-17T01:32:31.206Z,73.03
2022-12-17T01:33:31.210Z,72.43
2022-12-17T01:34:31.174Z,72.83
2022-12-17T01:35:31.061Z,73.16
2022-12-17T01:36:31.060Z,73.27
2022-12-17T01:37:31.134Z,73.16
2022-12-17T01:38:31.139Z,73.27
2022-12-17T01:39:31.083Z,73.86
2022-12-17T01:40:30.986Z,73.57
2022-12-17T01:41:30.994Z,73.47
2022-12-17T01:42:31.003Z,73.27
2022-12-17T01:43:31.073Z,73.16
2022-12-17T01:44:30.980Z,73.27
2022-12-17T01:45:31.100Z,73.67
2022-12-17T01:46:30.949Z,73.47
2022-12-17T01:47:30.936Z,73.47
2022-12-17T01:48:31.108Z,73.67
2022-12-17T01:49:31.380Z,74.07
2022-12-17T01:50:30.973Z,73.77
2022-12-17T01:51:30.881Z,73.86
2022-12-17T01:52:30.884Z,73.97
2022-12-17T01:53:30.984Z,73.57
2022-12-17T01:54:31.512Z,73.86
2022-12-17T01:55:30.912Z,73.47
2022-12-17T01:56:30.871Z,73.27
2022-12-17T01:57:30.821Z,73.07
2022-12-17T01:58:30.832Z,73.36
2022-12-17T01:59:30.831Z,73.67
2022-12-17T02:00:30.883Z,73.36
2022-12-17T02:01:30.982Z,72.90
2022-12-17T02:02:30.922Z,73.20
2022-12-17T02:03:30.758Z,72.90
2022-12-17T02:04:30.761Z,72.80
2022-12-17T02:05:30.778Z,73.60
2022-12-17T02:06:30.772Z,73.50
2022-12-17T02:07:30.827Z,73.94
2022-12-17T02:08:30.727Z,73.80
2022-12-17T02:09:30.683Z,73.40
2022-12-17T02:10:30.701Z,73.40
2022-12-17T02:11:30.714Z,73.84
2022-12-17T02:12:30.713Z,73.70
2022-12-17T02:13:30.695Z,73.80
2022-12-17T02:14:30.714Z,73.90
2022-12-17T02:15:30.644Z,73.10
2022-12-17T02:16:30.700Z,73.70
2022-12-17T02:17:30.647Z,73.84
2022-12-17T02:18:30.652Z,73.94
2022-12-17T02:19:30.656Z,74.04
2022-12-17T02:20:30.660Z,73.94
2022-12-17T02:21:30.570Z,74.24
2022-12-17T02:22:30.678Z,74.14
2022-12-17T02:23:30.581Z,73.94
2022-12-17T02:24:30.493Z,74.04
2022-12-17T02:25:30.549Z,74.04
2022-12-17T02:26:30.559Z,73.84
2022-12-17T02:27:30.517Z,73.94
2022-12-17T02:28:30.516Z,74.14
2022-12-17T02:29:30.579Z,73.84
2022-12-17T02:30:30.537Z,73.84
2022-12-17T02:31:30.588Z,73.94
2022-12-17T02:32:30.449Z,73.84
2022-12-17T02:33:30.442Z,73.64
2022-12-17T02:34:30.456Z,73.64
2022-12-17T02:35:30.454Z,73.54
2022-12-17T02:36:30.421Z,73.74
2022-12-17T02:37:30.440Z,73.74
2022-12-17T02:38:30.382Z,73.74
2022-12-17T02:39:30.382Z,73.94
2022-12-17T02:40:30.394Z,74.04
2022-12-17T02:41:30.391Z,74.14
2022-12-17T02:42:30.311Z,74.04
2022-12-17T02:43:30.377Z,74.14
2022-12-17T02:44:30.318Z,74.54
2022-12-17T02:45:30.368Z,74.64
2022-12-17T02:46:30.337Z,74.14
2022-12-17T02:47:30.332Z,73.74
2022-12-17T02:48:30.299Z,73.74
2022-12-17T02:49:30.310Z,73.44
2022-12-17T02:50:30.247Z,73.74
2022-12-17T02:51:30.256Z,74.14
2022-12-17T02:52:34.750Z,74.04
2022-12-17T02:53:30.275Z,73.84
2022-12-17T02:54:30.236Z,74.34
2022-12-17T02:55:30.239Z,74.24
2022-12-17T02:56:30.185Z,74.04
2022-12-17T02:57:30.196Z,74.24
2022-12-17T02:58:30.253Z,74.24
2022-12-17T02:59:30.231Z,74.44
2022-12-17T03:00:30.186Z,74.54
2022-12-17T03:01:30.308Z,74.44
2022-12-17T03:02:30.323Z,74.44
2022-12-17T03:03:30.283Z,74.84
2022-12-17T03:04:30.135Z,74.44
2022-12-17T03:05:46.057Z,74.04
2022-12-17T03:06:30.145Z,73.74
2022-12-17T03:07:30.089Z,73.94
2022-12-17T03:08:30.086Z,74.24
2022-12-17T03:09:30.097Z,73.94
2022-12-17T03:10:30.108Z,73.87
2022-12-17T03:11:30.050Z,73.87
2022-12-17T03:12:30.058Z,73.77
2022-12-17T03:13:30.070Z,73.87
2022-12-17T03:14:30.028Z,73.67
2022-12-17T03:15:30.109Z,73.57
2022-12-17T03:16:34.246Z,73.87
2022-12-17T03:17:30.013Z,73.37
2022-12-17T03:18:29.954Z,73.47
2022-12-17T03:19:30.026Z,74.07
2022-12-17T03:20:30.073Z,73.87
2022-12-17T03:21:30.900Z,73.87
2022-12-17T03:22:29.941Z,73.54
2022-12-17T03:23:29.885Z,73.37
2022-12-17T03:24:29.967Z,72.63
2022-12-17T03:25:29.899Z,73.17
2022-12-17T03:26:29.927Z,72.97
2022-12-17T03:27:29.988Z,73.17
2022-12-17T03:28:29.886Z,72.47
2022-12-17T03:29:29.894Z,72.47
2022-12-17T03:30:34.566Z,72.56
2022-12-17T03:31:29.893Z,72.67
2022-12-17T03:32:29.846Z,72.97
2022-12-17T03:33:29.839Z,72.97
2022-12-17T03:34:29.757Z,72.77
2022-12-17T03:35:29.842Z,73.07
2022-12-17T03:36:29.770Z,73.27
2022-12-17T03:37:29.849Z,73.37
2022-12-17T03:38:29.866Z,73.27
2022-12-17T03:39:29.757Z,73.07
2022-12-17T03:40:29.698Z,72.97
2022-12-17T03:41:29.711Z,73.30
2022-12-17T03:42:29.878Z,73.61
2022-12-17T03:43:29.781Z,73.50
2022-12-17T03:44:29.788Z,73.71
2022-12-17T03:45:29.705Z,73.71
2022-12-17T03:46:29.759Z,73.61
2022-12-17T03:47:29.642Z,73.41
2022-12-17T03:48:29.651Z,73.37
2022-12-17T03:49:29.658Z,73.30
2022-12-17T03:50:29.660Z,73.41
2022-12-17T03:51:29.631Z,73.71
2022-12-17T03:52:29.573Z,73.91
2022-12-17T03:53:29.579Z,73.91
2022-12-17T03:54:29.589Z,74.21
2022-12-17T03:55:29.903Z,74.21
2022-12-17T03:56:29.606Z,74.11
2022-12-17T03:57:29.503Z,74.01
2022-12-17T03:58:29.574Z,74.11
2022-12-17T03:59:29.521Z,74.31
2022-12-17T04:00:29.530Z,74.51
2022-12-17T04:01:30.605Z,74.51
2022-12-17T04:02:29.799Z,74.61
2022-12-17T04:03:29.599Z,74.61
2022-12-17T04:04:29.560Z,75.11
2022-12-17T04:05:29.521Z,74.81
2022-12-17T04:06:29.538Z,74.61
2022-12-17T04:07:29.884Z,74.81
2022-12-17T04:08:29.444Z,74.71
2022-12-17T04:09:29.387Z,74.61
2022-12-17T04:10:29.455Z,74.61
2022-12-17T04:11:29.466Z,74.51
2022-12-17T04:12:29.412Z,74.61
2022-12-17T04:13:29.406Z,74.71
2022-12-17T04:14:29.408Z,74.71
2022-12-17T04:15:29.397Z,74.61
2022-12-17T04:16:29.336Z,74.31
2022-12-17T04:17:29.412Z,73.91
2022-12-17T04:18:29.341Z,74.01
2022-12-17T04:19:29.348Z,74.11
2022-12-17T04:20:29.355Z,74.21
2022-12-17T04:21:29.339Z,74.31
2022-12-17T04:22:29.272Z,74.51
2022-12-17T04:23:29.254Z,74.21
2022-12-17T04:24:29.276Z,74.41
2022-12-17T04:25:29.280Z,74.71
2022-12-17T04:26:29.197Z,75.01
2022-12-17T04:27:29.199Z,74.95
2022-12-17T04:28:29.205Z,75.05
2022-12-17T04:29:29.208Z,75.15
2022-12-17T04:30:29.221Z,74.85
2022-12-17T04:31:29.271Z,74.85
2022-12-17T04:32:34.858Z,75.05
2022-12-17T04:33:29.142Z,75.15
2022-12-17T04:34:29.204Z,75.15
2022-12-17T04:35:29.198Z,74.95
2022-12-17T04:36:29.156Z,75.15
2022-12-17T04:37:29.161Z,74.51
2022-12-17T04:38:29.067Z,74.61
2022-12-17T04:39:29.073Z,74.91
2022-12-17T04:40:29.081Z,74.81
2022-12-17T04:41:29.102Z,75.01
2022-12-17T04:42:29.087Z,75.01
2022-12-17T04:43:29.057Z,75.11
2022-12-17T04:44:28.998Z,75.01
2022-12-17T04:45:29.019Z,75.05
2022-12-17T04:46:29.106Z,75.15
2022-12-17T04:47:29.019Z,75.15
2022-12-17T04:48:29.033Z,75.35
2022-12-17T04:49:28.997Z,75.65
2022-12-17T04:50:29.096Z,75.55
2022-12-17T04:51:28.946Z,75.85
2022-12-17T04:52:29.029Z,75.55
2022-12-17T04:53:29.878Z,75.35
2022-12-17T04:54:28.964Z,75.75
2022-12-17T04:55:28.956Z,75.51
2022-12-17T04:56:28.952Z,75.51
2022-12-17T04:57:28.884Z,75.42
2022-12-17T04:58:28.956Z,75.45
2022-12-17T04:59:29.408Z,75.55
2022-12-17T05:00:28.869Z,75.85
2022-12-17T05:01:29.029Z,76.05
2022-12-17T05:02:28.924Z,76.05
2022-12-17T05:03:29.512Z,76.05
2022-12-17T05:04:28.826Z,76.15
2022-12-17T05:05:28.852Z,76.65
2022-12-17T05:06:28.820Z,76.21
2022-12-17T05:07:28.878Z,76.42
2022-12-17T05:08:28.771Z,76.12
2022-12-17T05:09:28.770Z,76.12
2022-12-17T05:10:28.883Z,76.02
2022-12-17T05:11:28.853Z,76.21
2022-12-17T05:12:28.773Z,76.32
2022-12-17T05:13:28.767Z,76.32
2022-12-17T05:14:28.712Z,76.21
2022-12-17T05:15:28.713Z,76.05
2022-12-17T05:16:28.780Z,75.85
2022-12-17T05:17:28.709Z,76.05
2022-12-17T05:18:28.684Z,76.15
2022-12-17T05:19:28.686Z,76.25
2022-12-17T05:20:28.715Z,76.35
2022-12-17T05:21:33.196Z,75.95
2022-12-17T05:22:28.730Z,76.35
2022-12-17T05:23:28.718Z,76.25
2022-12-17T05:24:28.624Z,76.05
2022-12-17T05:25:28.621Z,76.05
2022-12-17T05:26:28.578Z,76.25
2022-12-17T05:27:28.649Z,76.56
2022-12-17T05:28:28.603Z,76.35
2022-12-17T05:29:28.598Z,76.05
2022-12-17T05:30:28.564Z,76.45
2022-12-17T05:31:28.558Z,76.25
2022-12-17T05:32:28.582Z,76.35
2022-12-17T05:33:28.516Z,76.25
2022-12-17T05:34:28.593Z,76.56
2022-12-17T05:35:28.592Z,76.45
2022-12-17T05:36:28.506Z,76.45
2022-12-17T05:37:28.512Z,76.45
2022-12-17T05:38:28.518Z,77.09
2022-12-17T05:39:28.460Z,76.86
2022-12-17T05:40:28.428Z,76.89
2022-12-17T05:41:28.435Z,77.00
2022-12-17T05:42:28.377Z,77.16
2022-12-17T05:43:28.448Z,77.26
2022-12-17T05:44:28.288Z,77.20
2022-12-17T05:45:28.364Z,77.29
2022-12-17T05:46:28.418Z,77.50
2022-12-17T05:47:28.389Z,77.70
2022-12-17T05:48:28.320Z,77.46
2022-12-17T05:49:28.385Z,77.16
2022-12-17T05:50:28.742Z,77.46
2022-12-17T05:51:28.298Z,77.26
2022-12-17T05:52:28.243Z,77.26
2022-12-17T05:53:28.314Z,77.26
2022-12-17T05:54:28.321Z,76.96
2022-12-17T05:55:28.221Z,76.86
2022-12-17T05:56:28.341Z,76.45
2022-12-17T05:57:28.190Z,76.35
2022-12-17T05:58:28.262Z,76.35
2022-12-17T05:59:28.253Z,76.45
2022-12-17T06:00:28.261Z,76.65
2022-12-17T06:01:28.305Z,77.06
2022-12-17T06:02:28.335Z,76.86
2022-12-17T06:03:28.331Z,76.86
2022-12-17T06:04:28.299Z,76.76
2022-12-17T06:05:28.192Z,76.76
2022-12-17T06:06:28.201Z,76.76
2022-12-17T06:07:28.107Z,76.89
2022-12-17T06:08:28.110Z,77.00
2022-12-17T06:09:28.114Z,77.00
2022-12-17T06:10:29.982Z,77.09
2022-12-17T06:11:28.076Z,77.59
2022-12-17T06:12:28.037Z,77.59
2022-12-17T06:13:27.983Z,77.50
2022-12-17T06:14:28.081Z,77.16
2022-12-17T06:15:28.001Z,77.36
2022-12-17T06:16:28.108Z,77.46
2022-12-17T06:17:28.008Z,77.36
2022-12-17T06:18:27.923Z,77.50
2022-12-17T06:19:27.916Z,77.70
2022-12-17T06:20:27.987Z,77.59
2022-12-17T06:21:28.014Z,77.50
2022-12-17T06:22:27.967Z,77.59
2022-12-17T06:23:28.021Z,77.90
2022-12-17T06:24:27.934Z,77.80
2022-12-17T06:25:27.931Z,77.70
2022-12-17T06:26:27.936Z,77.90
2022-12-17T06:27:27.944Z,78.20
2022-12-17T06:28:27.942Z,78.20
2022-12-17T06:29:27.813Z,78.30
2022-12-17T06:30:27.864Z,78.50
2022-12-17T06:31:27.908Z,78.20
2022-12-17T06:32:27.882Z,78.40
2022-12-17T06:33:27.883Z,78.40
2022-12-17T06:34:27.886Z,78.30
2022-12-17T06:35:27.788Z,78.30
2022-12-17T06:36:27.819Z,78.20
2022-12-17T06:37:27.760Z,78.10
2022-12-17T06:38:27.751Z,78.40
2022-12-17T06:39:27.756Z,78.40
2022-12-17T06:40:27.763Z,78.30
2022-12-17T06:41:27.729Z,78.40
2022-12-17T06:42:27.748Z,78.40
2022-12-17T06:43:27.697Z,78.30
2022-12-17T06:44:27.757Z,78.40
2022-12-17T06:45:28.512Z,78.20
2022-12-17T06:46:27.717Z,78.50
2022-12-17T06:47:27.602Z,78.50
2022-12-17T06:48:27.612Z,78.60
2022-12-17T06:49:27.616Z,78.60
2022-12-17T06:50:27.624Z,78.40
2022-12-17T06:51:27.629Z,78.40
2022-12-17T06:52:27.638Z,78.20
2022-12-17T06:53:27.541Z,78.14
2022-12-17T06:54:27.549Z,78.14
2022-12-17T06:55:27.557Z,78.14
2022-12-17T06:56:27.629Z,78.34
2022-12-17T06:57:27.574Z,78.14
2022-12-17T06:58:27.580Z,78.23
2022-12-17T06:59:27.544Z,78.34
2022-12-17T07:00:27.770Z,78.64
2022-12-17T07:01:27.588Z,78.54
2022-12-17T07:02:27.624Z,78.64
2022-12-17T07:03:27.527Z,78.23
2022-12-17T07:04:27.480Z,78.34
2022-12-17T07:05:27.496Z,78.23
2022-12-17T07:06:27.426Z,78.14
2022-12-17T07:07:27.459Z,77.83
2022-12-17T07:08:27.610Z,77.94
2022-12-17T07:09:27.469Z,77.94
2022-12-17T07:10:27.420Z,77.83
2022-12-17T07:11:27.475Z,78.03
2022-12-17T07:12:27.386Z,78.03
2022-12-17T07:13:27.394Z,78.23
2022-12-17T07:14:27.343Z,78.03
2022-12-17T07:15:27.407Z,78.54
2022-12-17T07:16:27.507Z,78.34
2022-12-17T07:17:27.317Z,78.23
2022-12-17T07:18:27.329Z,78.14
2022-12-17T07:19:27.809Z,78.23
2022-12-17T07:20:27.393Z,78.23
2022-12-17T07:21:27.294Z,78.23
2022-12-17T07:22:27.297Z,78.03
2022-12-17T07:23:27.258Z,77.63
2022-12-17T07:24:27.263Z,78.03
2022-12-17T07:25:27.272Z,78.54
2022-12-17T07:26:27.227Z,78.84
2022-12-17T07:27:27.841Z,78.54
2022-12-17T07:28:27.240Z,78.34
2022-12-17T07:29:27.202Z,78.44
2022-12-17T07:30:27.287Z,78.84
2022-12-17T07:31:27.270Z,78.74
2022-12-17T07:32:27.173Z,78.54
2022-12-17T07:33:27.168Z,78.54
2022-12-17T07:34:27.189Z,78.84
2022-12-17T07:35:27.134Z,79.04
2022-12-17T07:36:27.148Z,79.04
2022-12-17T07:37:27.149Z,79.04
2022-12-17T07:38:27.155Z,78.94
2022-12-17T07:39:27.213Z,78.74
2022-12-17T07:40:27.222Z,78.84
2022-12-17T07:41:27.127Z,78.84
2022-12-17T07:42:27.187Z,78.94
2022-12-17T07:43:27.701Z,78.74
2022-12-17T07:44:27.100Z,78.74
2022-12-17T07:45:27.166Z,78.74
2022-12-17T07:46:27.056Z,79.04
2022-12-17T07:47:27.071Z,79.04
2022-12-17T07:48:27.068Z,79.24
2022-12-17T07:49:27.026Z,79.14
2022-12-17T07:50:27.088Z,79.35
2022-12-17T07:51:27.042Z,79.14
2022-12-17T07:52:27.002Z,79.24
2022-12-17T07:53:27.007Z,79.14
2022-12-17T07:54:27.008Z,78.84
2022-12-17T07:55:27.067Z,79.04
2022-12-17T07:56:26.921Z,79.44
2022-12-17T07:57:26.979Z,79.24
2022-12-17T07:58:26.940Z,79.44
2022-12-17T07:59:26.888Z,79.54
2022-12-17T08:00:26.949Z,79.44
2022-12-17T08:01:27.104Z,79.54
2022-12-17T08:02:27.073Z,79.44
2022-12-17T08:03:27.078Z,79.64
2022-12-17T08:04:26.921Z,79.54
2022-12-17T08:05:26.931Z,79.54
2022-12-17T08:06:27.099Z,79.44
2022-12-17T08:07:26.794Z,79.35
2022-12-17T08:08:26.947Z,79.24
2022-12-17T08:09:26.910Z,79.14
2022-12-17T08:10:26.816Z,79.04
2022-12-17T08:11:26.764Z,78.94
2022-12-17T08:12:27.024Z,78.94
2022-12-17T08:13:26.733Z,79.04
2022-12-17T08:14:26.718Z,79.04
2022-12-17T08:15:26.745Z,79.04
2022-12-17T08:16:26.802Z,79.04
2022-12-17T08:17:26.814Z,79.35
2022-12-17T08:18:27.103Z,79.44
2022-12-17T08:19:26.713Z,79.44
2022-12-17T08:20:26.656Z,79.35
2022-12-17T08:21:26.664Z,79.24
2022-12-17T08:22:26.709Z,79.24
2022-12-17T08:23:26.636Z,79.14
2022-12-17T08:24:26.623Z,79.14
2022-12-17T08:25:26.629Z,79.14
2022-12-17T08:26:26.659Z,79.24
2022-12-17T08:27:26.579Z,79.24
2022-12-17T08:28:49.735Z,79.35
2022-12-17T08:29:26.575Z,79.35
2022-12-17T08:30:26.692Z,79.44
2022-12-17T08:31:26.589Z,79.35
2022-12-17T08:32:26.606Z,79.14
2022-12-17T08:33:27.494Z,79.24
2022-12-17T08:34:26.583Z,79.14
2022-12-17T08:35:27.234Z,79.14
2022-12-17T08:36:26.520Z,79.04
2022-12-17T08:37:26.507Z,79.35
2022-12-17T08:38:26.453Z,79.14
2022-12-17T08:39:26.548Z,79.35
2022-12-17T08:40:26.445Z,79.44
2022-12-17T08:41:26.429Z,79.44
2022-12-17T08:42:26.535Z,79.35
2022-12-17T08:43:26.436Z,79.14
2022-12-17T08:44:26.472Z,79.24
2022-12-17T08:45:26.485Z,79.35
2022-12-17T08:46:26.518Z,79.35
2022-12-17T08:47:26.309Z,79.24
2022-12-17T08:48:26.503Z,79.24
2022-12-17T08:49:26.407Z,79.35
2022-12-17T08:50:26.416Z,79.54
2022-12-17T08:51:26.424Z,79.35
2022-12-17T08:52:26.436Z,79.35
2022-12-17T08:53:29.544Z,79.35
2022-12-17T08:54:26.435Z,79.24
2022-12-17T08:55:26.527Z,79.24
2022-12-17T08:56:26.466Z,79.24
2022-12-17T08:57:31.696Z,79.24
2022-12-17T08:58:26.265Z,79.28
2022-12-17T08:59:26.241Z,79.44
2022-12-17T09:00:26.685Z,79.24
2022-12-17T09:01:26.547Z,79.24
2022-12-17T09:02:26.424Z,79.24
2022-12-17T09:03:26.406Z,79.44
2022-12-17T09:04:26.318Z,79.54
2022-12-17T09:05:26.181Z,79.58
2022-12-17T09:06:26.524Z,79.79
2022-12-17T09:07:26.136Z,79.88
2022-12-17T09:08:26.174Z,80.08
2022-12-17T09:09:26.259Z,80.08
2022-12-17T09:10:26.214Z,79.99
2022-12-17T09:11:26.150Z,79.79
2022-12-17T09:12:26.105Z,79.68
2022-12-17T09:13:26.173Z,79.85
2022-12-17T09:14:26.163Z,79.64
2022-12-17T09:15:26.275Z,79.54
2022-12-17T09:16:26.187Z,79.54
2022-12-17T09:17:26.091Z,79.74
2022-12-17T09:18:26.108Z,79.74
2022-12-17T09:19:26.098Z,79.94
2022-12-17T09:20:29.232Z,79.85
2022-12-17T09:21:25.979Z,79.64
2022-12-17T09:22:26.121Z,79.54
2022-12-17T09:23:26.019Z,79.35
2022-12-17T09:24:25.983Z,79.64
2022-12-17T09:25:26.035Z,79.44
2022-12-17T09:26:26.039Z,79.24
2022-12-17T09:27:25.969Z,79.14
2022-12-17T09:28:25.965Z,79.14
2022-12-17T09:29:25.965Z,78.54
2022-12-17T09:30:26.038Z,78.23
2022-12-17T09:31:26.051Z,78.14
2022-12-17T09:32:25.980Z,78.34
2022-12-17T09:33:25.883Z,78.74
2022-12-17T09:34:25.890Z,78.74
2022-12-17T09:35:26.061Z,78.94
2022-12-17T09:36:26.621Z,78.70
2022-12-17T09:37:25.887Z,78.50
2022-12-17T09:38:26.017Z,78.00
2022-12-17T09:39:25.938Z,77.50
2022-12-17T09:40:25.809Z,77.39
2022-12-17T09:41:25.836Z,77.59
2022-12-17T09:42:25.849Z,77.39
2022-12-17T09:43:25.809Z,77.29
2022-12-17T09:44:25.807Z,77.36
2022-12-17T09:45:25.766Z,77.06
2022-12-17T09:46:25.820Z,77.16
2022-12-17T09:47:25.799Z,76.25
2022-12-17T09:48:29.436Z,76.35
2022-12-17T09:49:25.749Z,76.45
2022-12-17T09:50:25.697Z,76.76
2022-12-17T09:51:25.760Z,76.86
2022-12-17T09:52:25.664Z,76.72
2022-12-17T09:53:25.801Z,76.52
2022-12-17T09:54:25.679Z,75.92
2022-12-17T09:55:26.605Z,75.65
2022-12-17T09:56:25.694Z,75.65
2022-12-17T09:57:25.651Z,75.15
2022-12-17T09:58:25.660Z,75.75
2022-12-17T09:59:25.672Z,75.51
2022-12-17T10:00:25.615Z,75.21
2022-12-17T10:01:25.682Z,75.21
2022-12-17T10:02:25.891Z,75.01
2022-12-17T10:03:25.692Z,75.51
2022-12-17T10:04:25.545Z,75.11
2022-12-17T10:05:25.505Z,75.08
2022-12-17T10:06:25.560Z,74.88
2022-12-17T10:07:25.567Z,74.57
2022-12-17T10:08:25.633Z,74.37
2022-12-17T10:09:25.508Z,74.57
2022-12-17T10:10:25.540Z,74.34
2022-12-17T10:11:27.904Z,74.44
2022-12-17T10:12:25.555Z,73.74
2022-12-17T10:13:25.507Z,74.24
2022-12-17T10:14:25.536Z,75.24
2022-12-17T10:15:25.510Z,75.14
2022-12-17T10:16:25.525Z,74.84
2022-12-17T10:17:25.381Z,74.54
2022-12-17T10:18:25.491Z,73.84
2022-12-17T10:19:25.390Z,74.04
2022-12-17T10:20:25.402Z,74.14
2022-12-17T10:21:25.460Z,74.04
2022-12-17T10:22:25.463Z,73.13
2022-12-17T10:23:25.323Z,73.94
2022-12-17T10:24:25.322Z,73.94
2022-12-17T10:25:25.274Z,74.34
2022-12-17T10:26:25.296Z,74.44
2022-12-17T10:27:25.603Z,74.14
2022-12-17T10:28:25.249Z,74.34
2022-12-17T10:29:26.277Z,74.64
2022-12-17T10:30:25.414Z,74.34
2022-12-17T10:31:25.245Z,74.04
2022-12-17T10:32:25.431Z,74.04
2022-12-17T10:33:25.705Z,73.94
2022-12-17T10:34:25.288Z,73.54
2022-12-17T10:35:25.218Z,73.24
2022-12-17T10:36:25.226Z,73.20
2022-12-17T10:37:25.205Z,73.00
2022-12-17T10:38:26.240Z,73.30
2022-12-17T10:39:25.587Z,73.50
2022-12-17T10:40:25.380Z,72.60
2022-12-17T10:41:25.234Z,72.50
2022-12-17T10:42:25.986Z,72.40
2022-12-17T10:43:25.100Z,72.40
2022-12-17T10:44:25.101Z,72.40
2022-12-17T10:45:25.112Z,73.00
2022-12-17T10:46:25.819Z,72.97
2022-12-17T10:47:25.091Z,73.47
2022-12-17T10:48:25.105Z,73.07
2022-12-17T10:49:25.036Z,71.96
2022-12-17T10:50:25.052Z,71.33
2022-12-17T10:51:25.269Z,70.93
2022-12-17T10:52:25.058Z,71.43
2022-12-17T10:53:25.168Z,71.43
2022-12-17T10:54:25.179Z,71.03
2022-12-17T10:55:25.079Z,71.23
2022-12-17T10:56:25.150Z,71.30
2022-12-17T10:57:24.992Z,71.30
2022-12-17T10:58:24.963Z,70.59
2022-12-17T10:59:25.832Z,70.73
2022-12-17T11:00:24.915Z,70.89
2022-12-17T11:01:25.068Z,70.23
2022-12-17T11:02:25.301Z,70.53
2022-12-17T11:03:25.054Z,70.43
2022-12-17T11:04:24.996Z,70.23
2022-12-17T11:05:24.919Z,70.43
2022-12-17T11:06:24.843Z,70.73
2022-12-17T11:07:24.956Z,71.43
2022-12-17T11:08:24.938Z,70.19
2022-12-17T11:09:24.938Z,70.19
2022-12-17T11:10:24.842Z,69.99
2022-12-17T11:11:25.774Z,69.59
2022-12-17T11:12:30.269Z,69.49
2022-12-17T11:13:24.790Z,69.59
2022-12-17T11:14:25.107Z,69.59
2022-12-17T11:15:24.814Z,69.19
2022-12-17T11:16:24.792Z,69.19
2022-12-17T11:17:24.887Z,69.39
2022-12-17T11:18:24.726Z,69.29
2022-12-17T11:19:24.793Z,69.32
2022-12-17T11:20:24.805Z,69.62
2022-12-17T11:21:24.750Z,69.73
2022-12-17T11:22:24.653Z,69.53
2022-12-17T11:23:24.828Z,69.82
2022-12-17T11:24:24.675Z,69.73
2022-12-17T11:25:24.739Z,70.12
2022-12-17T11:26:25.601Z,69.82
2022-12-17T11:27:24.747Z,70.32
2022-12-17T11:28:24.588Z,70.23
2022-12-17T11:29:24.599Z,70.12
2022-12-17T11:30:30.562Z,69.89
2022-12-17T11:31:24.669Z,69.49
2022-12-17T11:32:24.619Z,69.29
2022-12-17T11:33:24.626Z,69.06
2022-12-17T11:34:24.530Z,69.16
2022-12-17T11:35:24.581Z,69.46
2022-12-17T11:36:31.282Z,69.46
2022-12-17T11:37:24.551Z,69.16
2022-12-17T11:38:24.726Z,69.26
2022-12-17T11:39:24.627Z,69.06
2022-12-17T11:40:24.469Z,70.06
2022-12-17T11:41:24.475Z,69.96
2022-12-17T11:42:24.848Z,69.23
2022-12-17T11:43:24.490Z,68.62
2022-12-17T11:44:25.107Z,69.43
2022-12-17T11:45:24.556Z,69.53
2022-12-17T11:46:24.546Z,68.89
2022-12-17T11:47:24.559Z,69.09
2022-12-17T11:48:24.493Z,69.29
2022-12-17T11:49:24.506Z,68.09
2022-12-17T11:50:24.493Z,68.36
2022-12-17T11:51:24.337Z,68.36
2022-12-17T11:52:24.393Z,66.43
2022-12-17T11:53:28.003Z,66.43
2022-12-17T11:54:24.361Z,65.36
2022-12-17T11:55:24.409Z,66.59
2022-12-17T11:56:24.354Z,66.89
2022-12-17T11:57:24.318Z,66.59
2022-12-17T11:58:24.324Z,66.49
2022-12-17T11:59:24.291Z,65.86
2022-12-17T12:00:24.399Z,65.96
2022-12-17T12:01:24.425Z,66.16
2022-12-17T12:02:24.288Z,65.86
2022-12-17T12:03:24.424Z,65.06
2022-12-17T12:04:24.290Z,64.93
2022-12-17T12:05:24.205Z,64.83
2022-12-17T12:06:24.293Z,65.43
2022-12-17T12:07:24.299Z,65.00
2022-12-17T12:08:24.306Z,65.10
2022-12-17T12:09:24.217Z,65.37
2022-12-17T12:10:24.217Z,65.37
2022-12-17T12:11:29.790Z,65.23
2022-12-17T12:12:24.222Z,63.64
2022-12-17T12:13:24.161Z,62.54
2022-12-17T12:14:24.150Z,62.74
2022-12-17T12:15:24.071Z,63.44
2022-12-17T12:16:24.315Z,64.74
2022-12-17T12:17:24.061Z,63.67
2022-12-17T12:18:24.073Z,63.24
2022-12-17T12:19:24.061Z,62.84
2022-12-17T12:20:24.005Z,63.74
2022-12-17T12:21:24.012Z,64.14
2022-12-17T12:22:30.325Z,64.34
2022-12-17T12:23:24.023Z,64.64
2022-12-17T12:24:23.993Z,65.04
2022-12-17T12:25:23.971Z,65.04
2022-12-17T12:26:24.011Z,63.94
2022-12-17T12:27:23.976Z,64.04
2022-12-17T12:28:23.931Z,63.31
2022-12-17T12:29:23.935Z,62.78
2022-12-17T12:30:23.974Z,62.78
2022-12-17T12:31:23.956Z,62.38
2022-12-17T12:32:23.881Z,61.29
2022-12-17T12:33:23.891Z,61.19
2022-12-17T12:34:23.941Z,60.69
2022-12-17T12:35:23.921Z,60.39
2022-12-17T12:36:23.890Z,60.89
2022-12-17T12:37:23.840Z,59.62
2022-12-17T12:38:23.910Z,60.22
2022-12-17T12:39:23.831Z,59.39
2022-12-17T12:40:23.958Z,59.39
2022-12-17T12:41:23.825Z,59.59
2022-12-17T12:42:23.826Z,60.62
2022-12-17T12:43:23.795Z,60.42
2022-12-17T12:44:23.742Z,60.79
2022-12-17T12:45:23.776Z,59.59
2022-12-17T12:46:24.194Z,60.29
2022-12-17T12:47:23.823Z,60.56
2022-12-17T12:48:23.854Z,59.06
2022-12-17T12:49:23.764Z,58.84
2022-12-17T12:50:23.740Z,58.14
2022-12-17T12:51:23.784Z,57.54
2022-12-17T12:52:23.794Z,57.75